Aviation Digital Data Service (ADDS)

Output produced by METARs form (0738 UTC 29 May 2017)
found at http://www.aviationweather.gov/adds/metars/
 
KSBY 290654Z AUTO 34004KT 10SM OVC004 17/17 A2976 RMK AO2 SLP080 T01670167
KSBY 290541Z 2906/3006 34004KT 4SM -RA BR OVC003 
     FM290700 34004KT 3SM BR OVC003 
     FM291100 31004KT 1 1/2SM BR OVC003 
     FM291300 30004KT P6SM OVC003 
     FM291500 VRB03KT P6SM OVC009 
     FM291600 33004KT P6SM BKN020 
     FM292000 06006KT P6SM SCT035